Athina V — 9H8661 — position and weather

sailwx.info

Track history (hours):
 
Tides and Currents Weather Stations Pressure Air Temp Water Temp Dewpoint Dewpoint Depression Visibility Wind Speed Wind Dir Waves Ship Positions

Athina V

Last reported at 2015-Sep-22 07:14 UTC. Time now 2016-Apr-30 11:16 UTC.
Position N 39°09' E 000°46'.
Warning: this ship's position is months out of date.

Length 19 m; draft 3 m.

Type: Sailing vessel. MMSI: 256655000.

Date/timePositionNaut miles runAvg speedWind from/ knotsBaromVisibWave heightAir tempDewpointWater temp
2015-Sep-22 07:14N 39°09' E 000°46'4 5.3
2015-Sep-22 06:33N 39°07' E 000°51'6 6.0
2015-Sep-22 05:33N 39°05' E 000°58'7 5.9
2015-Sep-22 04:26N 39°03' E 001°06'5 5.3
2015-Sep-22 03:32N 39°01' E 001°12'2 0.1
2015-Sep-21 07:14N 38°60' E 001°13'14 3.8
2015-Sep-21 03:29N 38°47' E 001°20'4 3.6
2015-Sep-21 02:21N 38°45' E 001°25'  
2015-Sep-18 11:23N 38°51' E 001°33'6 5.7
2015-Sep-18 10:22N 38°53' E 001°40'5 5.8
2015-Sep-18 09:31N 38°54' E 001°46'6 6.0
2015-Sep-18 08:29N 38°56' E 001°54'6 6.1
2015-Sep-18 07:32N 38°58' E 002°01'6 6.3
2015-Sep-18 06:33N 39°00' E 002°08'6 6.4
2015-Sep-18 05:32N 39°03' E 002°16'7 6.6
2015-Sep-18 04:31N 39°05' E 002°24'6 6.1
2015-Sep-18 03:33N 39°07' E 002°31'6 5.6
2015-Sep-18 02:33N 39°09' E 002°38'5 5.3
2015-Sep-18 01:33N 39°10' E 002°44'6 5.7
2015-Sep-18 00:33N 39°12' E 002°51'5 4.7
2015-Sep-17 23:32N 39°14' E 002°57'7 5.0
2015-Sep-17 22:03N 39°17' E 003°06'4 5.7
2015-Sep-17 21:24N 39°19' E 003°10'  
Track history (hours):
 
Tides and Currents Weather Stations Pressure Air Temp Water Temp Dewpoint Dewpoint Depression Visibility Wind Speed Wind Dir Waves Ship Positions

Athina V

Last reported at 2015-Sep-22 07:14 UTC. Time now 2016-Apr-30 11:16 UTC.
Position N 39°09' E 000°46'.
Warning: this ship's position is months out of date.

Length 19 m; draft 3 m.

Type: Sailing vessel. MMSI: 256655000.

Date/timePositionNaut miles runAvg speedWind from/ knotsBaromVisibWave heightAir tempDewpointWater temp
2015-Sep-22 07:14N 39°09' E 000°46'4 5.3
2015-Sep-22 06:33N 39°07' E 000°51'6 6.0
2015-Sep-22 05:33N 39°05' E 000°58'7 5.9
2015-Sep-22 04:26N 39°03' E 001°06'5 5.3
2015-Sep-22 03:32N 39°01' E 001°12'2 0.1
2015-Sep-21 07:14N 38°60' E 001°13'14 3.8
2015-Sep-21 03:29N 38°47' E 001°20'4 3.6
2015-Sep-21 02:21N 38°45' E 001°25'  
2015-Sep-18 11:23N 38°51' E 001°33'6 5.7
2015-Sep-18 10:22N 38°53' E 001°40'5 5.8
2015-Sep-18 09:31N 38°54' E 001°46'6 6.0
2015-Sep-18 08:29N 38°56' E 001°54'6 6.1
2015-Sep-18 07:32N 38°58' E 002°01'6 6.3
2015-Sep-18 06:33N 39°00' E 002°08'6 6.4
2015-Sep-18 05:32N 39°03' E 002°16'7 6.6
2015-Sep-18 04:31N 39°05' E 002°24'6 6.1
2015-Sep-18 03:33N 39°07' E 002°31'6 5.6
2015-Sep-18 02:33N 39°09' E 002°38'5 5.3
2015-Sep-18 01:33N 39°10' E 002°44'6 5.7
2015-Sep-18 00:33N 39°12' E 002°51'5 4.7
2015-Sep-17 23:32N 39°14' E 002°57'7 5.0
2015-Sep-17 22:03N 39°17' E 003°06'4 5.7
2015-Sep-17 21:24N 39°19' E 003°10'  

Dump ship's entire track history